sensor_id;sensor_type;location;lat;lon;timestamp;P1;durP1;ratioP1;P2;durP2;ratioP2
41043;SDS011;51680;49.806;18.774;2023-03-12T00:01:10;16.38;;;7.35;;
41043;SDS011;51680;49.806;18.774;2023-03-12T00:04:12;15.52;;;7.35;;
41043;SDS011;51680;49.806;18.774;2023-03-12T00:07:15;13.90;;;7.20;;
41043;SDS011;51680;49.806;18.774;2023-03-12T00:10:18;14.98;;;7.93;;
41043;SDS011;51680;49.806;18.774;2023-03-12T00:13:20;16.20;;;8.40;;
41043;SDS011;51680;49.806;18.774;2023-03-12T00:16:22;17.08;;;7.97;;
41043;SDS011;51680;49.806;18.774;2023-03-12T00:19:24;15.98;;;7.78;;
41043;SDS011;51680;49.806;18.774;2023-03-12T00:22:27;16.73;;;8.10;;
41043;SDS011;51680;49.806;18.774;2023-03-12T00:25:29;14.63;;;8.30;;
41043;SDS011;51680;49.806;18.774;2023-03-12T00:28:31;16.33;;;8.20;;
41043;SDS011;51680;49.806;18.774;2023-03-12T00:31:34;14.93;;;8.20;;
41043;SDS011;51680;49.806;18.774;2023-03-12T00:34:35;16.35;;;8.25;;
41043;SDS011;51680;49.806;18.774;2023-03-12T00:37:39;16.02;;;8.13;;
41043;SDS011;51680;49.806;18.774;2023-03-12T00:40:40;15.13;;;8.23;;
41043;SDS011;51680;49.806;18.774;2023-03-12T00:43:42;13.60;;;7.82;;
41043;SDS011;51680;49.806;18.774;2023-03-12T00:46:44;13.95;;;7.40;;
41043;SDS011;51680;49.806;18.774;2023-03-12T00:49:46;15.50;;;8.32;;
41043;SDS011;51680;49.806;18.774;2023-03-12T00:52:49;14.95;;;7.72;;
41043;SDS011;51680;49.806;18.774;2023-03-12T00:55:50;15.10;;;7.45;;
41043;SDS011;51680;49.806;18.774;2023-03-12T00:58:52;13.80;;;7.63;;
41043;SDS011;51680;49.806;18.774;2023-03-12T01:01:54;17.33;;;7.20;;
41043;SDS011;51680;49.806;18.774;2023-03-12T01:04:56;13.32;;;7.72;;
41043;SDS011;51680;49.806;18.774;2023-03-12T01:08:00;13.85;;;7.10;;
41043;SDS011;51680;49.806;18.774;2023-03-12T01:11:02;14.52;;;8.02;;
41043;SDS011;51680;49.806;18.774;2023-03-12T01:14:05;13.52;;;7.68;;
41043;SDS011;51680;49.806;18.774;2023-03-12T01:17:08;14.52;;;7.43;;
41043;SDS011;51680;49.806;18.774;2023-03-12T01:20:10;11.70;;;7.03;;
41043;SDS011;51680;49.806;18.774;2023-03-12T01:23:13;13.27;;;7.72;;
41043;SDS011;51680;49.806;18.774;2023-03-12T01:26:16;16.13;;;8.25;;
41043;SDS011;51680;49.806;18.774;2023-03-12T01:29:17;13.55;;;7.43;;
41043;SDS011;51680;49.806;18.774;2023-03-12T01:32:19;13.50;;;7.45;;
41043;SDS011;51680;49.806;18.774;2023-03-12T01:35:21;14.27;;;6.95;;
41043;SDS011;51680;49.806;18.774;2023-03-12T01:38:25;14.27;;;7.57;;
41043;SDS011;51680;49.806;18.774;2023-03-12T01:41:27;12.75;;;7.25;;
41043;SDS011;51680;49.806;18.774;2023-03-12T01:44:46;15.50;;;7.97;;
41043;SDS011;51680;49.806;18.774;2023-03-12T01:47:50;13.85;;;7.28;;
41043;SDS011;51680;49.806;18.774;2023-03-12T01:50:51;13.70;;;6.95;;
41043;SDS011;51680;49.806;18.774;2023-03-12T01:53:56;12.03;;;6.90;;
41043;SDS011;51680;49.806;18.774;2023-03-12T01:57:02;13.00;;;7.15;;
41043;SDS011;51680;49.806;18.774;2023-03-12T02:00:08;15.93;;;7.55;;
41043;SDS011;51680;49.806;18.774;2023-03-12T02:03:16;14.23;;;7.68;;
41043;SDS011;51680;49.806;18.774;2023-03-12T02:06:20;12.60;;;6.88;;
41043;SDS011;51680;49.806;18.774;2023-03-12T02:09:27;12.20;;;7.82;;
41043;SDS011;51680;49.806;18.774;2023-03-12T02:12:30;13.02;;;7.47;;
41043;SDS011;51680;49.806;18.774;2023-03-12T02:15:32;16.47;;;7.40;;
41043;SDS011;51680;49.806;18.774;2023-03-12T02:18:35;13.33;;;7.00;;
41043;SDS011;51680;49.806;18.774;2023-03-12T02:21:37;13.13;;;7.78;;
41043;SDS011;51680;49.806;18.774;2023-03-12T02:24:42;13.20;;;7.50;;
41043;SDS011;51680;49.806;18.774;2023-03-12T02:27:48;12.65;;;7.35;;
41043;SDS011;51680;49.806;18.774;2023-03-12T02:30:50;12.75;;;7.57;;
41043;SDS011;51680;49.806;18.774;2023-03-12T02:33:54;14.15;;;7.80;;
41043;SDS011;51680;49.806;18.774;2023-03-12T02:36:57;15.43;;;7.68;;
41043;SDS011;51680;49.806;18.774;2023-03-12T02:40:02;13.32;;;7.05;;
41043;SDS011;51680;49.806;18.774;2023-03-12T02:43:10;11.30;;;6.30;;
41043;SDS011;51680;49.806;18.774;2023-03-12T02:46:12;12.60;;;6.72;;
41043;SDS011;51680;49.806;18.774;2023-03-12T02:49:33;13.10;;;6.93;;
41043;SDS011;51680;49.806;18.774;2023-03-12T02:52:35;11.70;;;7.13;;
41043;SDS011;51680;49.806;18.774;2023-03-12T02:55:37;10.80;;;6.20;;
41043;SDS011;51680;49.806;18.774;2023-03-12T02:58:40;13.63;;;7.05;;
41043;SDS011;51680;49.806;18.774;2023-03-12T03:01:44;11.13;;;6.30;;
41043;SDS011;51680;49.806;18.774;2023-03-12T03:04:46;11.80;;;6.95;;
41043;SDS011;51680;49.806;18.774;2023-03-12T03:07:48;11.90;;;7.05;;
41043;SDS011;51680;49.806;18.774;2023-03-12T03:10:50;12.55;;;6.82;;
41043;SDS011;51680;49.806;18.774;2023-03-12T03:13:55;13.23;;;7.43;;
41043;SDS011;51680;49.806;18.774;2023-03-12T03:16:57;12.75;;;7.55;;
41043;SDS011;51680;49.806;18.774;2023-03-12T03:19:59;15.93;;;8.20;;
41043;SDS011;51680;49.806;18.774;2023-03-12T03:23:01;13.70;;;8.07;;
41043;SDS011;51680;49.806;18.774;2023-03-12T03:26:04;16.87;;;8.33;;
41043;SDS011;51680;49.806;18.774;2023-03-12T03:29:07;15.27;;;8.18;;
41043;SDS011;51680;49.806;18.774;2023-03-12T03:32:09;14.02;;;7.75;;
41043;SDS011;51680;49.806;18.774;2023-03-12T03:35:11;14.07;;;7.75;;
41043;SDS011;51680;49.806;18.774;2023-03-12T03:38:13;13.95;;;8.38;;
41043;SDS011;51680;49.806;18.774;2023-03-12T03:41:15;14.32;;;7.95;;
41043;SDS011;51680;49.806;18.774;2023-03-12T03:44:19;15.07;;;7.97;;
41043;SDS011;51680;49.806;18.774;2023-03-12T03:47:23;12.32;;;7.40;;
41043;SDS011;51680;49.806;18.774;2023-03-12T03:50:25;12.90;;;7.40;;
41043;SDS011;51680;49.806;18.774;2023-03-12T03:53:27;13.00;;;8.00;;
41043;SDS011;51680;49.806;18.774;2023-03-12T03:56:29;14.48;;;7.53;;
41043;SDS011;51680;49.806;18.774;2023-03-12T04:02:36;12.43;;;7.07;;
41043;SDS011;51680;49.806;18.774;2023-03-12T04:05:38;13.75;;;7.25;;
41043;SDS011;51680;49.806;18.774;2023-03-12T04:08:44;12.45;;;7.88;;
41043;SDS011;51680;49.806;18.774;2023-03-12T04:11:49;10.90;;;6.80;;
41043;SDS011;51680;49.806;18.774;2023-03-12T04:14:52;14.80;;;7.95;;
41043;SDS011;51680;49.806;18.774;2023-03-12T04:17:54;12.98;;;6.32;;
41043;SDS011;51680;49.806;18.774;2023-03-12T04:20:57;14.20;;;7.45;;
41043;SDS011;51680;49.806;18.774;2023-03-12T04:23:59;19.02;;;7.38;;
41043;SDS011;51680;49.806;18.774;2023-03-12T04:27:04;12.57;;;6.90;;
41043;SDS011;51680;49.806;18.774;2023-03-12T04:33:12;17.40;;;7.32;;
41043;SDS011;51680;49.806;18.774;2023-03-12T04:36:14;15.88;;;6.88;;
41043;SDS011;51680;49.806;18.774;2023-03-12T04:39:19;14.02;;;7.28;;
41043;SDS011;51680;49.806;18.774;2023-03-12T04:42:23;14.75;;;6.95;;
41043;SDS011;51680;49.806;18.774;2023-03-12T04:45:27;12.60;;;6.50;;
41043;SDS011;51680;49.806;18.774;2023-03-12T04:48:29;18.30;;;7.78;;
41043;SDS011;51680;49.806;18.774;2023-03-12T04:51:31;13.35;;;7.85;;
41043;SDS011;51680;49.806;18.774;2023-03-12T04:54:35;11.95;;;7.82;;
41043;SDS011;51680;49.806;18.774;2023-03-12T04:57:37;16.58;;;8.45;;
41043;SDS011;51680;49.806;18.774;2023-03-12T05:00:41;16.02;;;7.57;;
41043;SDS011;51680;49.806;18.774;2023-03-12T05:03:44;13.70;;;7.25;;
41043;SDS011;51680;49.806;18.774;2023-03-12T05:06:45;16.25;;;7.15;;
41043;SDS011;51680;49.806;18.774;2023-03-12T05:09:47;14.70;;;7.20;;
41043;SDS011;51680;49.806;18.774;2023-03-12T05:12:49;13.45;;;7.85;;
41043;SDS011;51680;49.806;18.774;2023-03-12T05:15:54;11.85;;;7.05;;
41043;SDS011;51680;49.806;18.774;2023-03-12T05:18:56;14.48;;;6.97;;
41043;SDS011;51680;49.806;18.774;2023-03-12T05:21:59;14.38;;;6.85;;
41043;SDS011;51680;49.806;18.774;2023-03-12T05:25:01;12.20;;;6.47;;
41043;SDS011;51680;49.806;18.774;2023-03-12T05:28:03;15.60;;;7.47;;
41043;SDS011;51680;49.806;18.774;2023-03-12T05:31:08;14.32;;;8.88;;
41043;SDS011;51680;49.806;18.774;2023-03-12T05:34:12;12.68;;;7.50;;
41043;SDS011;51680;49.806;18.774;2023-03-12T05:37:16;14.57;;;7.35;;
41043;SDS011;51680;49.806;18.774;2023-03-12T05:40:21;13.50;;;7.13;;
41043;SDS011;51680;49.806;18.774;2023-03-12T05:43:23;15.15;;;6.60;;
41043;SDS011;51680;49.806;18.774;2023-03-12T05:46:26;11.57;;;7.03;;
41043;SDS011;51680;49.806;18.774;2023-03-12T05:52:31;15.13;;;7.63;;
41043;SDS011;51680;49.806;18.774;2023-03-12T05:55:33;14.70;;;7.38;;
41043;SDS011;51680;49.806;18.774;2023-03-12T05:58:36;12.20;;;7.27;;
41043;SDS011;51680;49.806;18.774;2023-03-12T06:01:40;14.13;;;7.82;;
41043;SDS011;51680;49.806;18.774;2023-03-12T06:04:42;16.80;;;8.45;;
41043;SDS011;51680;49.806;18.774;2023-03-12T06:07:44;15.32;;;8.55;;
41043;SDS011;51680;49.806;18.774;2023-03-12T06:10:46;18.00;;;8.80;;
41043;SDS011;51680;49.806;18.774;2023-03-12T06:13:50;14.70;;;8.27;;
41043;SDS011;51680;49.806;18.774;2023-03-12T06:16:54;20.27;;;10.85;;
41043;SDS011;51680;49.806;18.774;2023-03-12T06:19:57;22.40;;;11.57;;
41043;SDS011;51680;49.806;18.774;2023-03-12T06:22:59;22.83;;;11.63;;
41043;SDS011;51680;49.806;18.774;2023-03-12T06:26:01;17.75;;;10.60;;
41043;SDS011;51680;49.806;18.774;2023-03-12T06:29:03;20.42;;;10.15;;
41043;SDS011;51680;49.806;18.774;2023-03-12T06:32:07;20.50;;;10.93;;
41043;SDS011;51680;49.806;18.774;2023-03-12T06:35:09;20.63;;;10.35;;
41043;SDS011;51680;49.806;18.774;2023-03-12T06:38:10;19.83;;;10.05;;
41043;SDS011;51680;49.806;18.774;2023-03-12T06:41:31;15.52;;;8.48;;
41043;SDS011;51680;49.806;18.774;2023-03-12T06:44:33;15.63;;;9.20;;
41043;SDS011;51680;49.806;18.774;2023-03-12T06:47:36;16.27;;;8.18;;
41043;SDS011;51680;49.806;18.774;2023-03-12T06:50:38;13.43;;;7.33;;
41043;SDS011;51680;49.806;18.774;2023-03-12T06:53:39;14.13;;;7.15;;
41043;SDS011;51680;49.806;18.774;2023-03-12T06:56:41;10.52;;;6.65;;
41043;SDS011;51680;49.806;18.774;2023-03-12T06:59:43;13.50;;;7.43;;
41043;SDS011;51680;49.806;18.774;2023-03-12T07:02:46;13.48;;;7.55;;
41043;SDS011;51680;49.806;18.774;2023-03-12T07:05:49;12.32;;;7.22;;
41043;SDS011;51680;49.806;18.774;2023-03-12T07:08:51;11.30;;;6.75;;
41043;SDS011;51680;49.806;18.774;2023-03-12T07:11:53;10.52;;;6.65;;
41043;SDS011;51680;49.806;18.774;2023-03-12T07:14:54;11.68;;;6.95;;
41043;SDS011;51680;49.806;18.774;2023-03-12T07:17:59;10.13;;;6.05;;
41043;SDS011;51680;49.806;18.774;2023-03-12T07:21:01;9.07;;;6.22;;
41043;SDS011;51680;49.806;18.774;2023-03-12T07:24:04;8.43;;;5.38;;
41043;SDS011;51680;49.806;18.774;2023-03-12T07:27:07;7.15;;;4.72;;
41043;SDS011;51680;49.806;18.774;2023-03-12T07:30:09;8.57;;;5.07;;
41043;SDS011;51680;49.806;18.774;2023-03-12T07:33:13;6.97;;;4.63;;
41043;SDS011;51680;49.806;18.774;2023-03-12T07:36:15;7.10;;;4.67;;
41043;SDS011;51680;49.806;18.774;2023-03-12T07:39:17;7.78;;;4.80;;
41043;SDS011;51680;49.806;18.774;2023-03-12T07:42:19;7.07;;;4.80;;
41043;SDS011;51680;49.806;18.774;2023-03-12T07:45:21;7.97;;;4.72;;
41043;SDS011;51680;49.806;18.774;2023-03-12T07:48:25;7.75;;;4.72;;
41043;SDS011;51680;49.806;18.774;2023-03-12T07:51:27;9.02;;;5.38;;
41043;SDS011;51680;49.806;18.774;2023-03-12T07:54:29;12.18;;;5.85;;
41043;SDS011;51680;49.806;18.774;2023-03-12T07:57:31;10.35;;;5.95;;
41043;SDS011;51680;49.806;18.774;2023-03-12T08:00:32;8.88;;;5.78;;
41043;SDS011;51680;49.806;18.774;2023-03-12T08:03:36;10.02;;;5.03;;
41043;SDS011;51680;49.806;18.774;2023-03-12T08:06:38;11.15;;;5.72;;
41043;SDS011;51680;49.806;18.774;2023-03-12T08:09:41;9.88;;;5.60;;
41043;SDS011;51680;49.806;18.774;2023-03-12T08:12:43;11.48;;;6.35;;
41043;SDS011;51680;49.806;18.774;2023-03-12T08:15:45;12.27;;;6.18;;
41043;SDS011;51680;49.806;18.774;2023-03-12T08:18:48;12.00;;;6.47;;
41043;SDS011;51680;49.806;18.774;2023-03-12T08:21:50;10.07;;;5.80;;
41043;SDS011;51680;49.806;18.774;2023-03-12T08:24:53;10.38;;;5.85;;
41043;SDS011;51680;49.806;18.774;2023-03-12T08:27:54;10.75;;;6.20;;
41043;SDS011;51680;49.806;18.774;2023-03-12T08:30:57;10.20;;;6.05;;
41043;SDS011;51680;49.806;18.774;2023-03-12T08:34:01;12.55;;;6.47;;
41043;SDS011;51680;49.806;18.774;2023-03-12T08:37:22;11.30;;;6.03;;
41043;SDS011;51680;49.806;18.774;2023-03-12T08:40:24;14.30;;;7.43;;
41043;SDS011;51680;49.806;18.774;2023-03-12T08:43:26;13.70;;;7.03;;
41043;SDS011;51680;49.806;18.774;2023-03-12T08:46:28;12.85;;;7.13;;
41043;SDS011;51680;49.806;18.774;2023-03-12T08:49:31;13.43;;;7.53;;
41043;SDS011;51680;49.806;18.774;2023-03-12T08:52:33;11.63;;;6.60;;
41043;SDS011;51680;49.806;18.774;2023-03-12T08:55:35;14.48;;;7.32;;
41043;SDS011;51680;49.806;18.774;2023-03-12T08:58:37;12.90;;;7.03;;
41043;SDS011;51680;49.806;18.774;2023-03-12T09:01:38;13.00;;;7.47;;
41043;SDS011;51680;49.806;18.774;2023-03-12T09:04:45;13.70;;;7.97;;
41043;SDS011;51680;49.806;18.774;2023-03-12T09:07:47;12.80;;;6.82;;
41043;SDS011;51680;49.806;18.774;2023-03-12T09:10:49;10.25;;;6.25;;
41043;SDS011;51680;49.806;18.774;2023-03-12T09:13:51;11.65;;;6.18;;
41043;SDS011;51680;49.806;18.774;2023-03-12T09:16:53;9.65;;;5.68;;
41043;SDS011;51680;49.806;18.774;2023-03-12T09:19:56;8.82;;;5.25;;
41043;SDS011;51680;49.806;18.774;2023-03-12T09:22:57;10.70;;;5.90;;
41043;SDS011;51680;49.806;18.774;2023-03-12T09:25:59;10.23;;;5.47;;
41043;SDS011;51680;49.806;18.774;2023-03-12T09:29:01;8.60;;;5.22;;
41043;SDS011;51680;49.806;18.774;2023-03-12T09:32:03;8.93;;;5.22;;
41043;SDS011;51680;49.806;18.774;2023-03-12T09:35:07;10.50;;;5.85;;
41043;SDS011;51680;49.806;18.774;2023-03-12T09:38:11;10.18;;;5.63;;
41043;SDS011;51680;49.806;18.774;2023-03-12T09:41:16;9.30;;;5.38;;
41043;SDS011;51680;49.806;18.774;2023-03-12T09:44:22;9.02;;;5.30;;
41043;SDS011;51680;49.806;18.774;2023-03-12T09:47:31;9.75;;;4.55;;
41043;SDS011;51680;49.806;18.774;2023-03-12T09:50:38;7.57;;;4.30;;
41043;SDS011;51680;49.806;18.774;2023-03-12T09:53:43;8.90;;;3.67;;
41043;SDS011;51680;49.806;18.774;2023-03-12T09:56:49;7.20;;;3.55;;
41043;SDS011;51680;49.806;18.774;2023-03-12T09:59:52;7.60;;;4.38;;
41043;SDS011;51680;49.806;18.774;2023-03-12T10:03:04;10.10;;;4.07;;
41043;SDS011;51680;49.806;18.774;2023-03-12T10:06:18;9.38;;;3.97;;
41043;SDS011;51680;49.806;18.774;2023-03-12T10:09:25;7.57;;;4.10;;
41043;SDS011;51680;49.806;18.774;2023-03-12T10:12:36;7.07;;;3.63;;
41043;SDS011;51680;49.806;18.774;2023-03-12T10:15:49;6.93;;;3.30;;
41043;SDS011;51680;49.806;18.774;2023-03-12T10:19:09;5.18;;;2.70;;
41043;SDS011;51680;49.806;18.774;2023-03-12T10:22:26;5.00;;;2.90;;
41043;SDS011;51680;49.806;18.774;2023-03-12T10:25:40;4.78;;;2.70;;
41043;SDS011;51680;49.806;18.774;2023-03-12T10:29:09;4.72;;;1.90;;
41043;SDS011;51680;49.806;18.774;2023-03-12T10:32:16;5.65;;;2.65;;
41043;SDS011;51680;49.806;18.774;2023-03-12T10:35:23;5.07;;;2.53;;
41043;SDS011;51680;49.806;18.774;2023-03-12T10:38:28;5.40;;;1.83;;
41043;SDS011;51680;49.806;18.774;2023-03-12T10:41:30;5.78;;;2.92;;
41043;SDS011;51680;49.806;18.774;2023-03-12T10:44:33;5.70;;;2.30;;
41043;SDS011;51680;49.806;18.774;2023-03-12T10:47:35;5.88;;;1.95;;
41043;SDS011;51680;49.806;18.774;2023-03-12T10:50:38;5.43;;;1.73;;
41043;SDS011;51680;49.806;18.774;2023-03-12T10:53:42;4.25;;;1.60;;
41043;SDS011;51680;49.806;18.774;2023-03-12T10:56:47;4.18;;;1.75;;
41043;SDS011;51680;49.806;18.774;2023-03-12T10:59:50;5.50;;;2.73;;
41043;SDS011;51680;49.806;18.774;2023-03-12T11:02:56;6.55;;;3.10;;
41043;SDS011;51680;49.806;18.774;2023-03-12T11:06:00;5.28;;;2.38;;
41043;SDS011;51680;49.806;18.774;2023-03-12T11:09:06;3.55;;;2.10;;
41043;SDS011;51680;49.806;18.774;2023-03-12T11:12:21;7.18;;;1.88;;
41043;SDS011;51680;49.806;18.774;2023-03-12T11:15:25;5.68;;;1.95;;
41043;SDS011;51680;49.806;18.774;2023-03-12T11:18:32;4.63;;;2.03;;
41043;SDS011;51680;49.806;18.774;2023-03-12T11:21:37;6.78;;;2.35;;
41043;SDS011;51680;49.806;18.774;2023-03-12T11:24:54;5.60;;;2.45;;
41043;SDS011;51680;49.806;18.774;2023-03-12T11:27:58;6.28;;;2.15;;
41043;SDS011;51680;49.806;18.774;2023-03-12T11:34:04;4.55;;;2.17;;
41043;SDS011;51680;49.806;18.774;2023-03-12T11:37:10;5.65;;;2.60;;
41043;SDS011;51680;49.806;18.774;2023-03-12T11:40:38;4.75;;;2.45;;
41043;SDS011;51680;49.806;18.774;2023-03-12T11:43:54;4.38;;;2.22;;
41043;SDS011;51680;49.806;18.774;2023-03-12T11:47:11;4.00;;;2.28;;
41043;SDS011;51680;49.806;18.774;2023-03-12T11:50:26;3.83;;;2.10;;
41043;SDS011;51680;49.806;18.774;2023-03-12T11:53:45;5.00;;;2.25;;
41043;SDS011;51680;49.806;18.774;2023-03-12T11:57:00;7.18;;;3.38;;
41043;SDS011;51680;49.806;18.774;2023-03-12T12:00:11;4.60;;;2.50;;
41043;SDS011;51680;49.806;18.774;2023-03-12T12:03:25;4.18;;;2.13;;
41043;SDS011;51680;49.806;18.774;2023-03-12T12:06:45;6.05;;;2.33;;
41043;SDS011;51680;49.806;18.774;2023-03-12T12:09:56;6.43;;;2.30;;
41043;SDS011;51680;49.806;18.774;2023-03-12T12:13:09;7.05;;;2.22;;
41043;SDS011;51680;49.806;18.774;2023-03-12T12:16:18;4.20;;;1.90;;
41043;SDS011;51680;49.806;18.774;2023-03-12T12:19:33;3.95;;;2.05;;
41043;SDS011;51680;49.806;18.774;2023-03-12T12:22:45;9.57;;;3.85;;
41043;SDS011;51680;49.806;18.774;2023-03-12T12:26:01;4.45;;;2.10;;
41043;SDS011;51680;49.806;18.774;2023-03-12T12:29:19;9.38;;;3.15;;
41043;SDS011;51680;49.806;18.774;2023-03-12T12:32:35;10.35;;;4.68;;
41043;SDS011;51680;49.806;18.774;2023-03-12T12:35:51;12.75;;;4.28;;
41043;SDS011;51680;49.806;18.774;2023-03-12T12:38:54;4.28;;;1.90;;
41043;SDS011;51680;49.806;18.774;2023-03-12T12:42:01;6.75;;;2.85;;
41043;SDS011;51680;49.806;18.774;2023-03-12T12:45:10;6.22;;;2.60;;
41043;SDS011;51680;49.806;18.774;2023-03-12T12:48:15;10.68;;;5.95;;
41043;SDS011;51680;49.806;18.774;2023-03-12T12:51:22;5.18;;;3.00;;
41043;SDS011;51680;49.806;18.774;2023-03-12T12:54:29;6.32;;;2.75;;
41043;SDS011;51680;49.806;18.774;2023-03-12T12:57:38;6.70;;;3.90;;
41043;SDS011;51680;49.806;18.774;2023-03-12T13:00:46;10.23;;;4.28;;
41043;SDS011;51680;49.806;18.774;2023-03-12T13:03:50;6.57;;;4.03;;
41043;SDS011;51680;49.806;18.774;2023-03-12T13:06:55;7.20;;;4.40;;
41043;SDS011;51680;49.806;18.774;2023-03-12T13:10:07;7.68;;;3.30;;
41043;SDS011;51680;49.806;18.774;2023-03-12T13:13:42;6.53;;;3.65;;
41043;SDS011;51680;49.806;18.774;2023-03-12T13:16:46;6.13;;;3.30;;
41043;SDS011;51680;49.806;18.774;2023-03-12T13:22:55;7.00;;;3.90;;
41043;SDS011;51680;49.806;18.774;2023-03-12T13:26:05;6.82;;;4.28;;
41043;SDS011;51680;49.806;18.774;2023-03-12T13:29:19;7.32;;;4.07;;
41043;SDS011;51680;49.806;18.774;2023-03-12T13:32:40;8.63;;;3.70;;
41043;SDS011;51680;49.806;18.774;2023-03-12T13:36:10;7.60;;;4.10;;
41043;SDS011;51680;49.806;18.774;2023-03-12T13:39:27;8.52;;;4.15;;
41043;SDS011;51680;49.806;18.774;2023-03-12T13:42:35;5.00;;;3.20;;
41043;SDS011;51680;49.806;18.774;2023-03-12T13:45:39;7.75;;;4.25;;
41043;SDS011;51680;49.806;18.774;2023-03-12T13:48:57;6.95;;;3.67;;
41043;SDS011;51680;49.806;18.774;2023-03-12T13:52:09;6.85;;;3.58;;
41043;SDS011;51680;49.806;18.774;2023-03-12T13:55:21;9.45;;;4.30;;
41043;SDS011;51680;49.806;18.774;2023-03-12T13:58:26;10.60;;;4.00;;
41043;SDS011;51680;49.806;18.774;2023-03-12T14:01:29;7.97;;;3.33;;
41043;SDS011;51680;49.806;18.774;2023-03-12T14:04:35;7.25;;;3.72;;
41043;SDS011;51680;49.806;18.774;2023-03-12T14:07:54;5.88;;;3.38;;
41043;SDS011;51680;49.806;18.774;2023-03-12T14:11:16;7.45;;;3.63;;
41043;SDS011;51680;49.806;18.774;2023-03-12T14:14:43;6.82;;;3.35;;
41043;SDS011;51680;49.806;18.774;2023-03-12T14:17:57;10.95;;;5.18;;
41043;SDS011;51680;49.806;18.774;2023-03-12T14:21:06;10.73;;;4.97;;
41043;SDS011;51680;49.806;18.774;2023-03-12T14:24:14;11.52;;;4.70;;
41043;SDS011;51680;49.806;18.774;2023-03-12T14:27:26;6.93;;;3.70;;
41043;SDS011;51680;49.806;18.774;2023-03-12T14:30:35;6.97;;;3.83;;
41043;SDS011;51680;49.806;18.774;2023-03-12T14:33:46;6.40;;;3.55;;
41043;SDS011;51680;49.806;18.774;2023-03-12T14:36:57;5.97;;;3.60;;
41043;SDS011;51680;49.806;18.774;2023-03-12T14:40:05;10.60;;;4.93;;
41043;SDS011;51680;49.806;18.774;2023-03-12T14:43:37;9.60;;;4.25;;
41043;SDS011;51680;49.806;18.774;2023-03-12T14:46:44;8.90;;;3.90;;
41043;SDS011;51680;49.806;18.774;2023-03-12T14:49:47;7.13;;;4.30;;
41043;SDS011;51680;49.806;18.774;2023-03-12T14:52:50;11.30;;;4.93;;
41043;SDS011;51680;49.806;18.774;2023-03-12T14:56:02;12.95;;;5.10;;
41043;SDS011;51680;49.806;18.774;2023-03-12T14:59:18;11.13;;;5.43;;
41043;SDS011;51680;49.806;18.774;2023-03-12T15:02:23;8.38;;;4.20;;
41043;SDS011;51680;49.806;18.774;2023-03-12T15:05:26;8.15;;;4.47;;
41043;SDS011;51680;49.806;18.774;2023-03-12T15:08:29;12.23;;;5.13;;
41043;SDS011;51680;49.806;18.774;2023-03-12T15:11:35;6.40;;;3.33;;
41043;SDS011;51680;49.806;18.774;2023-03-12T15:14:38;7.20;;;3.87;;
41043;SDS011;51680;49.806;18.774;2023-03-12T15:17:42;6.95;;;3.67;;
41043;SDS011;51680;49.806;18.774;2023-03-12T15:20:44;7.45;;;3.50;;
41043;SDS011;51680;49.806;18.774;2023-03-12T15:23:48;29.47;;;12.23;;
41043;SDS011;51680;49.806;18.774;2023-03-12T15:26:50;15.57;;;6.75;;
41043;SDS011;51680;49.806;18.774;2023-03-12T15:29:52;17.25;;;7.68;;
41043;SDS011;51680;49.806;18.774;2023-03-12T15:33:04;9.65;;;5.28;;
41043;SDS011;51680;49.806;18.774;2023-03-12T15:36:17;13.98;;;5.57;;
41043;SDS011;51680;49.806;18.774;2023-03-12T15:39:26;7.55;;;3.85;;
41043;SDS011;51680;49.806;18.774;2023-03-12T15:42:33;6.70;;;4.55;;
41043;SDS011;51680;49.806;18.774;2023-03-12T15:45:38;12.10;;;8.38;;
41043;SDS011;51680;49.806;18.774;2023-03-12T15:48:40;31.60;;;19.33;;
41043;SDS011;51680;49.806;18.774;2023-03-12T15:51:59;17.63;;;13.32;;
41043;SDS011;51680;49.806;18.774;2023-03-12T15:55:20;52.67;;;23.75;;
41043;SDS011;51680;49.806;18.774;2023-03-12T15:58:24;20.05;;;9.05;;
41043;SDS011;51680;49.806;18.774;2023-03-12T16:01:29;117.07;;;38.47;;
41043;SDS011;51680;49.806;18.774;2023-03-12T16:04:30;28.42;;;10.93;;
41043;SDS011;51680;49.806;18.774;2023-03-12T16:07:32;33.38;;;14.48;;
41043;SDS011;51680;49.806;18.774;2023-03-12T16:10:35;235.40;;;81.57;;
41043;SDS011;51680;49.806;18.774;2023-03-12T16:13:39;82.60;;;31.13;;
41043;SDS011;51680;49.806;18.774;2023-03-12T16:16:41;35.30;;;14.68;;
41043;SDS011;51680;49.806;18.774;2023-03-12T16:19:42;128.40;;;45.70;;
41043;SDS011;51680;49.806;18.774;2023-03-12T16:22:44;151.15;;;55.00;;
41043;SDS011;51680;49.806;18.774;2023-03-12T16:25:48;175.45;;;67.05;;
41043;SDS011;51680;49.806;18.774;2023-03-12T16:28:52;32.92;;;14.25;;
41043;SDS011;51680;49.806;18.774;2023-03-12T16:31:54;47.78;;;20.83;;
41043;SDS011;51680;49.806;18.774;2023-03-12T16:34:56;41.47;;;19.23;;
41043;SDS011;51680;49.806;18.774;2023-03-12T16:37:58;44.10;;;21.42;;
41043;SDS011;51680;49.806;18.774;2023-03-12T16:41:02;31.02;;;14.10;;
41043;SDS011;51680;49.806;18.774;2023-03-12T16:44:04;22.23;;;10.52;;
41043;SDS011;51680;49.806;18.774;2023-03-12T16:47:09;33.75;;;16.88;;
41043;SDS011;51680;49.806;18.774;2023-03-12T16:50:13;29.83;;;15.48;;
41043;SDS011;51680;49.806;18.774;2023-03-12T16:53:15;24.33;;;11.65;;
41043;SDS011;51680;49.806;18.774;2023-03-12T16:56:19;30.10;;;14.70;;
41043;SDS011;51680;49.806;18.774;2023-03-12T16:59:24;19.02;;;9.77;;
41043;SDS011;51680;49.806;18.774;2023-03-12T17:02:30;19.50;;;8.98;;
41043;SDS011;51680;49.806;18.774;2023-03-12T17:05:32;15.13;;;7.78;;
41043;SDS011;51680;49.806;18.774;2023-03-12T17:08:34;19.45;;;9.07;;
41043;SDS011;51680;49.806;18.774;2023-03-12T17:11:37;14.77;;;7.35;;
41043;SDS011;51680;49.806;18.774;2023-03-12T17:14:39;16.70;;;7.97;;
41043;SDS011;51680;49.806;18.774;2023-03-12T17:17:42;15.55;;;8.25;;
41043;SDS011;51680;49.806;18.774;2023-03-12T17:20:44;18.27;;;8.90;;
41043;SDS011;51680;49.806;18.774;2023-03-12T17:23:47;19.65;;;9.90;;
41043;SDS011;51680;49.806;18.774;2023-03-12T17:26:51;20.45;;;12.20;;
41043;SDS011;51680;49.806;18.774;2023-03-12T17:29:53;17.67;;;9.87;;
41043;SDS011;51680;49.806;18.774;2023-03-12T17:32:59;15.35;;;9.93;;
41043;SDS011;51680;49.806;18.774;2023-03-12T17:36:03;20.10;;;10.68;;
41043;SDS011;51680;49.806;18.774;2023-03-12T17:39:07;16.80;;;8.20;;
41043;SDS011;51680;49.806;18.774;2023-03-12T17:42:10;12.50;;;6.40;;
41043;SDS011;51680;49.806;18.774;2023-03-12T17:45:12;14.50;;;6.50;;
41043;SDS011;51680;49.806;18.774;2023-03-12T17:48:14;15.05;;;7.30;;
41043;SDS011;51680;49.806;18.774;2023-03-12T17:51:16;14.77;;;6.97;;
41043;SDS011;51680;49.806;18.774;2023-03-12T17:54:20;18.50;;;9.38;;
41043;SDS011;51680;49.806;18.774;2023-03-12T17:57:23;18.88;;;8.40;;
41043;SDS011;51680;49.806;18.774;2023-03-12T18:00:25;18.40;;;9.00;;
41043;SDS011;51680;49.806;18.774;2023-03-12T18:03:26;21.83;;;10.95;;
41043;SDS011;51680;49.806;18.774;2023-03-12T18:06:28;20.10;;;9.68;;
41043;SDS011;51680;49.806;18.774;2023-03-12T18:09:30;21.35;;;9.20;;
41043;SDS011;51680;49.806;18.774;2023-03-12T18:12:33;20.23;;;9.15;;
41043;SDS011;51680;49.806;18.774;2023-03-12T18:15:37;23.95;;;10.05;;
41043;SDS011;51680;49.806;18.774;2023-03-12T18:18:38;21.70;;;8.85;;
41043;SDS011;51680;49.806;18.774;2023-03-12T18:21:40;18.88;;;8.90;;